createdAt,value
2023-06-09T00:00:28.973Z,16.29
2023-06-09T00:01:54.876Z,16.35
2023-06-09T00:03:22.681Z,16.38
2023-06-09T00:04:45.334Z,16.42
2023-06-09T00:06:10.201Z,16.34
2023-06-09T00:07:34.694Z,16.37
2023-06-09T00:08:58.376Z,16.39
2023-06-09T00:10:21.510Z,16.44
2023-06-09T00:11:44.429Z,16.39
2023-06-09T00:13:08.793Z,16.32
2023-06-09T00:14:30.771Z,16.31
2023-06-09T00:15:53.644Z,16.31
2023-06-09T00:17:15.753Z,16.39
2023-06-09T00:18:41.291Z,16.40
2023-06-09T00:20:04.046Z,16.41
2023-06-09T00:21:26.825Z,16.40
2023-06-09T00:22:49.688Z,16.34
2023-06-09T00:24:12.686Z,16.34
2023-06-09T00:25:35.176Z,16.27
2023-06-09T00:26:57.989Z,16.31
2023-06-09T00:28:21.705Z,16.30
2023-06-09T00:29:44.655Z,16.08
2023-06-09T00:31:07.358Z,15.76
2023-06-09T00:32:30.294Z,15.86
2023-06-09T00:33:52.256Z,15.91
2023-06-09T00:35:15.315Z,16.02
2023-06-09T00:36:37.322Z,15.94
2023-06-09T00:38:00.551Z,15.77
2023-06-09T00:39:22.883Z,15.70
2023-06-09T00:40:45.685Z,15.86
2023-06-09T00:42:08.056Z,15.91
2023-06-09T00:43:32.231Z,15.97
2023-06-09T00:44:55.051Z,16.04
2023-06-09T00:46:16.952Z,16.06
2023-06-09T00:47:40.006Z,16.19
2023-06-09T00:49:02.046Z,16.19
2023-06-09T00:50:25.108Z,15.98
2023-06-09T00:51:48.008Z,15.86
2023-06-09T00:53:12.118Z,15.93
2023-06-09T00:54:34.855Z,16.03
2023-06-09T00:55:57.784Z,16.03
2023-06-09T00:57:20.245Z,16.08
2023-06-09T00:58:44.651Z,16.17
2023-06-09T01:00:08.030Z,16.11
2023-06-09T01:01:34.244Z,15.88
2023-06-09T01:03:01.812Z,15.92
2023-06-09T01:04:25.193Z,15.89
2023-06-09T01:05:49.975Z,15.99
2023-06-09T01:07:18.958Z,16.07
2023-06-09T01:08:48.425Z,16.03
2023-06-09T01:10:17.182Z,15.72
2023-06-09T01:11:51.244Z,15.78
2023-06-09T01:13:21.891Z,15.66
2023-06-09T01:14:53.321Z,15.60
2023-06-09T01:16:34.596Z,15.66
2023-06-09T01:17:58.983Z,15.82
2023-06-09T01:19:32.551Z,15.78
2023-06-09T01:21:07.711Z,15.86
2023-06-09T01:22:38.710Z,15.62
2023-06-09T01:24:17.870Z,15.69
2023-06-09T01:25:47.060Z,15.81
2023-06-09T01:27:11.912Z,15.86
2023-06-09T01:28:39.276Z,15.57
2023-06-09T01:30:02.054Z,15.57
2023-06-09T01:31:26.436Z,15.60
2023-06-09T01:32:51.038Z,15.71
2023-06-09T01:34:15.291Z,15.77
2023-06-09T01:35:39.066Z,15.80
2023-06-09T01:37:02.415Z,15.80
2023-06-09T01:38:27.002Z,15.84
2023-06-09T01:39:51.462Z,15.77
2023-06-09T01:41:15.654Z,15.75
2023-06-09T01:42:38.119Z,15.67
2023-06-09T01:44:00.986Z,15.74
2023-06-09T01:45:22.891Z,15.74
2023-06-09T01:46:46.165Z,15.47
2023-06-09T01:48:22.368Z,15.44
2023-06-09T01:49:55.989Z,15.25
2023-06-09T01:51:26.352Z,14.91
2023-06-09T01:52:55.674Z,15.22
2023-06-09T01:54:23.714Z,15.36
2023-06-09T01:55:52.078Z,15.46
2023-06-09T01:57:28.483Z,15.46
2023-06-09T01:58:55.004Z,15.54
2023-06-09T02:00:19.041Z,15.52
2023-06-09T02:01:44.488Z,15.54
2023-06-09T02:03:09.410Z,15.53
2023-06-09T02:04:33.162Z,15.59
2023-06-09T02:05:57.633Z,15.65
2023-06-09T02:07:22.802Z,15.67
2023-06-09T02:08:45.080Z,15.54
2023-06-09T02:10:09.836Z,15.60
2023-06-09T02:11:32.696Z,15.57
2023-06-09T02:12:56.844Z,15.67
2023-06-09T02:14:18.877Z,15.55
2023-06-09T02:15:42.006Z,15.52
2023-06-09T02:17:05.358Z,15.56
2023-06-09T02:18:28.247Z,15.60
2023-06-09T02:19:50.149Z,15.36
2023-06-09T02:21:13.019Z,15.40
2023-06-09T02:22:34.874Z,15.56
2023-06-09T02:23:57.717Z,15.61
2023-06-09T02:25:19.667Z,15.68
2023-06-09T02:26:42.507Z,15.48
2023-06-09T02:28:08.157Z,15.47
2023-06-09T02:29:31.372Z,15.53
2023-06-09T02:30:54.190Z,15.43
2023-06-09T02:32:16.187Z,14.96
2023-06-09T02:33:39.054Z,14.90
2023-06-09T02:35:01.853Z,15.11
2023-06-09T02:36:24.799Z,15.29
2023-06-09T02:37:47.648Z,15.38
2023-06-09T02:39:10.052Z,15.44
2023-06-09T02:40:34.172Z,15.43
2023-06-09T02:41:56.220Z,15.46
2023-06-09T02:43:20.530Z,15.44
2023-06-09T02:44:42.401Z,15.46
2023-06-09T02:46:05.559Z,15.45
2023-06-09T02:47:27.556Z,15.36
2023-06-09T02:48:50.523Z,15.28
2023-06-09T02:50:12.484Z,15.26
2023-06-09T02:51:35.810Z,15.25
2023-06-09T02:52:57.974Z,15.39
2023-06-09T02:54:21.084Z,15.52
2023-06-09T02:55:46.193Z,15.50
2023-06-09T02:57:09.379Z,15.47
2023-06-09T02:58:32.608Z,15.36
2023-06-09T02:59:55.776Z,15.30
2023-06-09T03:01:18.786Z,14.98
2023-06-09T03:02:43.111Z,14.93
2023-06-09T03:04:07.534Z,14.47
2023-06-09T03:05:30.729Z,14.32
2023-06-09T03:06:55.593Z,14.51
2023-06-09T03:08:18.527Z,14.30
2023-06-09T03:09:41.369Z,14.65
2023-06-09T03:11:03.226Z,14.91
2023-06-09T03:12:26.077Z,14.82
2023-06-09T03:13:49.253Z,14.84
2023-06-09T03:15:12.448Z,14.92
2023-06-09T03:16:34.428Z,14.84
2023-06-09T03:17:58.529Z,14.99
2023-06-09T03:19:21.470Z,14.21
2023-06-09T03:20:43.546Z,14.52
2023-06-09T03:22:07.084Z,14.68
2023-06-09T03:23:31.633Z,14.74
2023-06-09T03:24:54.469Z,14.64
2023-06-09T03:26:16.360Z,14.62
2023-06-09T03:27:39.290Z,14.48
2023-06-09T03:29:02.556Z,14.62
2023-06-09T03:30:25.344Z,14.82
2023-06-09T03:31:48.201Z,14.92
2023-06-09T03:33:12.285Z,14.94
2023-06-09T03:34:35.136Z,15.06
2023-06-09T03:35:57.100Z,14.99
2023-06-09T03:37:20.060Z,15.09
2023-06-09T03:38:41.965Z,15.06
2023-06-09T03:40:06.429Z,14.96
2023-06-09T03:41:29.467Z,14.92
2023-06-09T03:42:51.345Z,15.02
2023-06-09T03:44:15.608Z,15.13
2023-06-09T03:45:38.521Z,15.24
2023-06-09T03:47:01.473Z,15.07
2023-06-09T03:48:24.339Z,14.88
2023-06-09T03:49:47.179Z,14.91
2023-06-09T03:51:10.033Z,14.97
2023-06-09T03:52:32.891Z,15.08
2023-06-09T03:53:55.796Z,14.88
2023-06-09T03:55:21.258Z,15.14
2023-06-09T03:56:44.187Z,15.21
2023-06-09T03:58:06.987Z,15.27
2023-06-09T03:59:31.105Z,15.36
2023-06-09T04:00:53.971Z,15.45
2023-06-09T04:02:16.034Z,15.22
2023-06-09T04:03:39.052Z,15.37
2023-06-09T04:05:00.981Z,15.43
2023-06-09T04:06:23.795Z,15.22
2023-06-09T04:07:45.737Z,15.30
2023-06-09T04:09:08.572Z,15.45
2023-06-09T04:10:31.404Z,15.44
2023-06-09T04:11:54.296Z,15.53
2023-06-09T04:13:16.162Z,15.66
2023-06-09T04:14:40.342Z,15.70
2023-06-09T04:16:02.306Z,15.61
2023-06-09T04:17:25.213Z,15.73
2023-06-09T04:18:47.700Z,15.82
2023-06-09T04:20:10.917Z,15.89
2023-06-09T04:21:33.966Z,15.99
2023-06-09T04:22:57.301Z,16.16
2023-06-09T04:24:21.116Z,16.23
2023-06-09T04:25:44.092Z,16.18
2023-06-09T04:27:07.137Z,16.22
2023-06-09T04:28:30.052Z,15.99
2023-06-09T04:29:53.774Z,16.06
2023-06-09T04:31:19.946Z,16.01
2023-06-09T04:32:41.863Z,15.98
2023-06-09T04:34:10.874Z,16.09
2023-06-09T04:35:33.814Z,16.13
2023-06-09T04:36:57.402Z,16.21
2023-06-09T04:38:21.278Z,16.16
2023-06-09T04:39:47.100Z,16.27
2023-06-09T04:41:10.491Z,16.43
2023-06-09T04:42:32.934Z,16.52
2023-06-09T04:43:55.812Z,16.60
2023-06-09T04:45:21.538Z,16.68
2023-06-09T04:46:43.681Z,16.75
2023-06-09T04:48:07.190Z,16.69
2023-06-09T04:49:32.560Z,16.79
2023-06-09T04:50:55.331Z,16.92
2023-06-09T04:52:19.632Z,16.93
2023-06-09T04:53:43.696Z,16.97
2023-06-09T04:55:07.404Z,17.04
2023-06-09T04:56:30.362Z,17.06
2023-06-09T04:57:54.790Z,17.02
2023-06-09T04:59:18.015Z,17.05
2023-06-09T05:00:42.217Z,17.16
2023-06-09T05:02:04.747Z,17.21
2023-06-09T05:03:28.973Z,17.35
2023-06-09T05:04:51.782Z,17.42
2023-06-09T05:06:14.629Z,17.46
2023-06-09T05:07:36.780Z,17.50
2023-06-09T05:08:59.637Z,17.50
2023-06-09T05:10:22.787Z,17.57
2023-06-09T05:11:45.716Z,17.61
2023-06-09T05:13:09.518Z,17.69
2023-06-09T05:14:33.181Z,17.77
2023-06-09T05:15:58.512Z,17.65
2023-06-09T05:17:21.904Z,17.49
2023-06-09T05:18:45.057Z,17.07
2023-06-09T05:20:10.697Z,17.32
2023-06-09T05:21:33.740Z,17.47
2023-06-09T05:22:56.596Z,17.60
2023-06-09T05:24:19.505Z,17.69
2023-06-09T05:25:42.497Z,17.69
2023-06-09T05:27:06.537Z,17.74
2023-06-09T05:28:29.327Z,17.71
2023-06-09T05:29:52.362Z,17.72
2023-06-09T05:31:18.029Z,17.91
2023-06-09T05:32:40.983Z,17.92
2023-06-09T05:34:02.891Z,17.73
2023-06-09T05:35:26.430Z,17.89
2023-06-09T05:36:49.405Z,17.84
2023-06-09T05:38:12.308Z,17.90
2023-06-09T05:39:35.115Z,17.80
2023-06-09T05:40:58.236Z,17.82
2023-06-09T05:42:21.069Z,18.02
2023-06-09T05:43:43.953Z,18.16
2023-06-09T05:45:07.087Z,18.29
2023-06-09T05:46:31.306Z,18.36
2023-06-09T05:47:54.190Z,18.42
2023-06-09T05:49:17.458Z,18.49
2023-06-09T05:50:39.430Z,18.54
2023-06-09T05:52:02.804Z,18.59
2023-06-09T05:53:26.399Z,18.45
2023-06-09T05:54:49.572Z,18.52
2023-06-09T05:56:16.484Z,18.40
2023-06-09T05:57:41.520Z,18.44
2023-06-09T05:59:04.893Z,18.38
2023-06-09T06:00:30.568Z,18.49
2023-06-09T06:01:54.831Z,18.51
2023-06-09T06:03:17.017Z,18.52
2023-06-09T06:04:40.198Z,18.64
2023-06-09T06:06:03.116Z,18.51
2023-06-09T06:07:25.008Z,18.58
2023-06-09T06:08:47.924Z,18.67
2023-06-09T06:10:11.518Z,18.75
2023-06-09T06:11:34.575Z,18.73
2023-06-09T06:12:59.312Z,18.64
2023-06-09T06:14:22.186Z,18.69
2023-06-09T06:15:45.369Z,18.63
2023-06-09T06:17:08.624Z,18.82
2023-06-09T06:18:31.539Z,18.90
2023-06-09T06:19:54.368Z,19.02
2023-06-09T06:21:18.412Z,19.04
2023-06-09T06:22:42.646Z,18.70
2023-06-09T06:24:06.542Z,18.82
2023-06-09T06:25:29.991Z,18.98
2023-06-09T06:26:53.386Z,18.94
2023-06-09T06:28:16.883Z,19.12
2023-06-09T06:29:40.238Z,19.32
2023-06-09T06:31:04.012Z,19.36
2023-06-09T06:32:28.239Z,19.32
2023-06-09T06:33:51.180Z,19.55
2023-06-09T06:35:13.152Z,19.68
2023-06-09T06:36:36.355Z,19.71
2023-06-09T06:37:58.526Z,19.73
2023-06-09T06:39:21.548Z,19.86
2023-06-09T06:40:44.519Z,20.01
2023-06-09T06:42:08.379Z,20.13
2023-06-09T06:43:31.177Z,20.29
2023-06-09T06:44:56.377Z,20.30
2023-06-09T06:46:20.942Z,20.30
2023-06-09T06:47:46.757Z,20.18
2023-06-09T06:49:09.635Z,20.12
2023-06-09T06:50:33.788Z,20.16
2023-06-09T06:51:56.633Z,20.17
2023-06-09T06:53:19.561Z,20.17
2023-06-09T06:54:42.434Z,20.25
2023-06-09T06:56:05.732Z,20.37
2023-06-09T06:57:29.119Z,20.56
2023-06-09T06:58:52.091Z,20.56
2023-06-09T07:00:16.295Z,20.48
2023-06-09T07:01:40.361Z,20.46
2023-06-09T07:03:04.818Z,20.30
2023-06-09T07:04:28.152Z,20.33
2023-06-09T07:05:51.262Z,20.27
2023-06-09T07:07:14.120Z,20.43
2023-06-09T07:08:37.471Z,20.50
2023-06-09T07:09:59.674Z,20.71
2023-06-09T07:11:22.747Z,20.75
2023-06-09T07:12:45.924Z,20.83
2023-06-09T07:14:08.743Z,20.78
2023-06-09T07:15:31.583Z,20.48
2023-06-09T07:16:54.459Z,20.75
2023-06-09T07:18:18.856Z,20.84
2023-06-09T07:19:41.880Z,20.96
2023-06-09T07:21:05.632Z,21.14
2023-06-09T07:22:29.338Z,21.15
2023-06-09T07:23:52.290Z,21.26
2023-06-09T07:25:15.213Z,21.30
2023-06-09T07:26:38.044Z,21.50
2023-06-09T07:28:01.091Z,21.53
2023-06-09T07:29:23.951Z,21.59
2023-06-09T07:30:46.745Z,21.39
2023-06-09T07:32:09.614Z,21.26
2023-06-09T07:33:35.053Z,21.28
2023-06-09T07:34:58.824Z,21.20
2023-06-09T07:36:21.874Z,21.32
2023-06-09T07:37:43.798Z,21.53
2023-06-09T07:39:06.857Z,21.41
2023-06-09T07:40:29.966Z,21.54
2023-06-09T07:41:52.211Z,21.66
2023-06-09T07:43:15.086Z,21.70
2023-06-09T07:44:38.357Z,21.86
2023-06-09T07:46:01.612Z,21.99
2023-06-09T07:47:23.601Z,22.05
2023-06-09T07:48:47.806Z,21.81
2023-06-09T07:50:11.320Z,21.77
2023-06-09T07:51:38.141Z,21.64
2023-06-09T07:53:01.217Z,21.90
2023-06-09T07:54:24.234Z,22.06
2023-06-09T07:55:47.098Z,22.16
2023-06-09T07:57:09.886Z,22.27
2023-06-09T07:58:33.755Z,22.37
2023-06-09T07:59:56.374Z,22.15
2023-06-09T08:01:19.172Z,22.31
2023-06-09T08:02:43.971Z,22.26
2023-06-09T08:04:08.770Z,22.04
2023-06-09T08:05:35.106Z,22.08
2023-06-09T08:07:00.061Z,21.90
2023-06-09T08:08:22.878Z,22.00
2023-06-09T08:09:45.921Z,22.21
2023-06-09T08:11:08.738Z,22.41
2023-06-09T08:12:31.705Z,22.51
2023-06-09T08:13:54.598Z,22.65
2023-06-09T08:15:17.618Z,22.76
2023-06-09T08:16:40.606Z,22.80
2023-06-09T08:18:03.658Z,22.93
2023-06-09T08:19:29.414Z,22.90
2023-06-09T08:20:51.350Z,23.07
2023-06-09T08:22:14.575Z,22.74
2023-06-09T08:23:37.391Z,22.92
2023-06-09T08:25:01.176Z,22.89
2023-06-09T08:26:23.136Z,23.05
2023-06-09T08:27:47.563Z,23.10
2023-06-09T08:29:11.860Z,23.28
2023-06-09T08:30:34.783Z,23.28
2023-06-09T08:31:57.639Z,23.40
2023-06-09T08:33:20.691Z,23.26
2023-06-09T08:34:45.083Z,23.40
2023-06-09T08:36:08.507Z,23.47
2023-06-09T08:37:33.147Z,23.38
2023-06-09T08:38:56.347Z,23.49
2023-06-09T08:40:19.650Z,23.57
2023-06-09T08:41:44.149Z,23.63
2023-06-09T08:43:07.369Z,23.44
2023-06-09T08:44:30.836Z,23.32
2023-06-09T08:45:55.204Z,23.45
2023-06-09T08:47:21.629Z,23.81
2023-06-09T08:48:51.576Z,23.53
2023-06-09T08:50:17.651Z,22.52
2023-06-09T08:51:41.421Z,22.38
2023-06-09T08:53:04.607Z,22.68
2023-06-09T08:54:27.819Z,22.94
2023-06-09T08:55:50.777Z,23.30
2023-06-09T08:57:13.947Z,23.37
2023-06-09T08:58:37.804Z,23.46
2023-06-09T09:00:00.684Z,23.80
2023-06-09T09:01:23.547Z,23.86
2023-06-09T09:02:46.420Z,24.07
2023-06-09T09:04:09.414Z,23.85
2023-06-09T09:05:34.202Z,23.96
2023-06-09T09:06:57.317Z,24.25
2023-06-09T09:08:20.812Z,24.34
2023-06-09T09:09:43.645Z,24.54
2023-06-09T09:11:06.536Z,24.33
2023-06-09T09:12:29.443Z,24.37
2023-06-09T09:13:52.377Z,24.57
2023-06-09T09:15:15.269Z,24.92
2023-06-09T09:16:38.279Z,25.12
2023-06-09T09:18:00.550Z,25.22
2023-06-09T09:19:27.731Z,24.95
2023-06-09T09:20:51.947Z,24.99
2023-06-09T09:22:14.822Z,25.08
2023-06-09T09:23:37.633Z,25.28
2023-06-09T09:25:00.523Z,25.29
2023-06-09T09:26:28.409Z,25.33
2023-06-09T09:28:04.760Z,25.41
2023-06-09T09:29:28.512Z,25.35
2023-06-09T09:30:52.928Z,25.28
2023-06-09T09:32:16.518Z,25.07
2023-06-09T09:33:48.402Z,24.95
2023-06-09T09:35:11.784Z,25.22
2023-06-09T09:36:42.873Z,25.30
2023-06-09T09:38:04.894Z,25.58
2023-06-09T09:39:27.800Z,25.50
2023-06-09T09:40:51.896Z,25.39
2023-06-09T09:42:14.796Z,25.51
2023-06-09T09:43:37.628Z,25.50
2023-06-09T09:45:05.247Z,25.71
2023-06-09T09:46:28.568Z,25.26
2023-06-09T09:47:50.756Z,25.18
2023-06-09T09:49:23.666Z,25.47
2023-06-09T09:50:47.698Z,25.57
2023-06-09T09:52:13.588Z,25.65
2023-06-09T09:53:36.575Z,26.02
2023-06-09T09:55:01.943Z,26.06
2023-06-09T09:56:25.114Z,26.16
2023-06-09T09:57:48.372Z,26.22
2023-06-09T09:59:11.229Z,26.47
2023-06-09T10:00:36.616Z,26.46
2023-06-09T10:01:59.561Z,26.26
2023-06-09T10:03:22.533Z,26.47
2023-06-09T10:04:47.661Z,26.53
2023-06-09T10:06:11.923Z,26.48
2023-06-09T10:07:40.357Z,26.01
2023-06-09T10:09:05.010Z,26.34
2023-06-09T10:10:27.607Z,26.01
2023-06-09T10:11:51.139Z,25.89
2023-06-09T10:13:15.018Z,26.01
2023-06-09T10:14:38.011Z,26.48
2023-06-09T10:16:01.828Z,26.94
2023-06-09T10:17:27.531Z,27.23
2023-06-09T10:18:50.822Z,27.67
2023-06-09T10:20:14.022Z,27.66
2023-06-09T10:21:38.042Z,27.97
2023-06-09T10:23:02.702Z,28.17
2023-06-09T10:24:26.228Z,28.48
2023-06-09T10:25:48.632Z,28.75
2023-06-09T10:27:11.832Z,29.44
2023-06-09T10:28:34.621Z,29.58
2023-06-09T10:29:57.795Z,29.98
2023-06-09T10:31:21.535Z,29.94
2023-06-09T10:32:48.227Z,29.07
2023-06-09T10:34:12.467Z,28.64
2023-06-09T10:35:38.954Z,28.80
2023-06-09T10:37:02.173Z,29.18
2023-06-09T10:38:29.691Z,28.65
2023-06-09T10:39:57.617Z,28.11
2023-06-09T10:41:24.179Z,28.14
2023-06-09T10:42:57.518Z,29.36
2023-06-09T10:44:31.477Z,29.65
2023-06-09T10:45:56.121Z,29.88
2023-06-09T10:47:44.516Z,29.69
2023-06-09T10:49:07.649Z,30.21
2023-06-09T10:50:31.942Z,29.47
2023-06-09T10:51:53.992Z,29.57
2023-06-09T10:53:17.000Z,29.21
2023-06-09T10:54:41.160Z,30.13
2023-06-09T10:56:34.231Z,29.90
2023-06-09T10:57:57.556Z,29.25
2023-06-09T10:59:53.522Z,30.02
2023-06-09T11:01:17.651Z,30.68
2023-06-09T11:02:41.491Z,30.76
2023-06-09T11:04:46.711Z,30.46
2023-06-09T11:06:09.621Z,30.51
2023-06-09T11:07:41.540Z,30.12
2023-06-09T11:09:13.110Z,30.18
2023-06-09T11:10:38.765Z,30.88
2023-06-09T11:12:00.742Z,31.42
2023-06-09T11:13:40.968Z,30.76
2023-06-09T11:15:04.255Z,30.24
2023-06-09T11:16:27.242Z,30.54
2023-06-09T11:17:50.500Z,31.16
2023-06-09T11:19:25.496Z,32.03
2023-06-09T11:21:12.029Z,32.56
2023-06-09T11:22:35.024Z,32.34
2023-06-09T11:24:01.866Z,30.83
2023-06-09T11:25:37.937Z,30.01
2023-06-09T11:27:18.870Z,30.56
2023-06-09T11:28:42.605Z,30.87
2023-06-09T11:30:13.104Z,30.42
2023-06-09T11:31:49.515Z,31.58
2023-06-09T11:33:12.563Z,31.45
2023-06-09T11:34:52.869Z,30.69
2023-06-09T11:36:23.954Z,30.04
2023-06-09T11:37:50.824Z,31.07
2023-06-09T11:39:13.870Z,31.76
2023-06-09T11:40:38.539Z,31.96
2023-06-09T11:42:01.812Z,31.75
2023-06-09T11:43:26.775Z,32.00
2023-06-09T11:44:50.571Z,32.23
2023-06-09T11:46:13.958Z,32.32
2023-06-09T11:47:36.883Z,32.31
2023-06-09T11:49:04.357Z,32.97
2023-06-09T11:50:28.786Z,32.95
2023-06-09T11:51:59.287Z,31.16
2023-06-09T11:53:24.235Z,32.00
2023-06-09T11:54:50.385Z,32.15
2023-06-09T11:56:13.364Z,32.40
2023-06-09T11:57:37.430Z,31.60
2023-06-09T11:59:02.001Z,31.34
2023-06-09T12:00:28.166Z,32.08
2023-06-09T12:01:51.155Z,31.83
2023-06-09T12:03:19.049Z,31.58
2023-06-09T12:04:43.917Z,32.29
2023-06-09T12:06:07.209Z,31.55
2023-06-09T12:07:30.122Z,31.96
2023-06-09T12:08:52.040Z,31.72
2023-06-09T12:10:15.512Z,31.35
2023-06-09T12:11:49.688Z,31.21
2023-06-09T12:13:13.477Z,31.66
2023-06-09T12:14:38.040Z,31.39
2023-06-09T12:16:03.458Z,31.42
2023-06-09T12:17:26.749Z,30.85
2023-06-09T12:18:49.800Z,31.11
2023-06-09T12:20:23.794Z,31.79
2023-06-09T12:21:49.320Z,31.38
2023-06-09T12:23:16.002Z,31.48
2023-06-09T12:24:39.827Z,31.80
2023-06-09T12:26:08.230Z,31.69
2023-06-09T12:27:31.165Z,32.11
2023-06-09T12:28:54.800Z,32.39
2023-06-09T12:30:40.573Z,31.10
2023-06-09T12:32:03.503Z,29.44
2023-06-09T12:33:31.331Z,29.61
2023-06-09T12:35:04.449Z,30.06
2023-06-09T12:36:27.227Z,30.29
2023-06-09T12:37:50.168Z,30.84
2023-06-09T12:39:18.895Z,30.30
2023-06-09T12:40:46.256Z,30.80
2023-06-09T12:42:13.285Z,31.38
2023-06-09T12:43:46.681Z,31.42
2023-06-09T12:45:14.839Z,31.79
2023-06-09T12:46:41.524Z,31.49
2023-06-09T12:48:07.905Z,31.86
2023-06-09T12:49:32.846Z,31.52
2023-06-09T12:50:57.549Z,31.02
2023-06-09T12:52:20.591Z,30.44
2023-06-09T12:53:42.537Z,30.14
2023-06-09T12:55:11.175Z,30.27
2023-06-09T12:56:34.490Z,30.82
2023-06-09T12:57:56.390Z,31.22
2023-06-09T12:59:19.284Z,31.78
2023-06-09T13:00:42.339Z,32.25
2023-06-09T13:02:07.272Z,32.72
2023-06-09T13:03:30.597Z,32.63
2023-06-09T13:04:53.644Z,32.05
2023-06-09T13:06:17.358Z,32.32
2023-06-09T13:07:40.409Z,32.31
2023-06-09T13:09:03.397Z,32.37
2023-06-09T13:10:26.469Z,32.37
2023-06-09T13:11:49.296Z,31.97
2023-06-09T13:13:12.140Z,30.97
2023-06-09T13:14:34.939Z,29.45
2023-06-09T13:15:58.236Z,30.36
2023-06-09T13:17:22.837Z,30.91
2023-06-09T13:18:46.476Z,31.69
2023-06-09T13:20:10.455Z,31.75
2023-06-09T13:21:44.667Z,31.70
2023-06-09T13:23:08.750Z,31.84
2023-06-09T13:24:31.678Z,32.12
2023-06-09T13:25:54.543Z,32.06
2023-06-09T13:27:17.490Z,32.22
2023-06-09T13:28:40.293Z,32.06
2023-06-09T13:30:03.502Z,31.64
2023-06-09T13:31:26.504Z,31.82
2023-06-09T13:32:50.959Z,31.95
2023-06-09T13:34:14.249Z,32.03
2023-06-09T13:35:37.821Z,32.26
2023-06-09T13:37:00.901Z,31.73
2023-06-09T13:38:23.849Z,30.35
2023-06-09T13:39:47.194Z,29.12
2023-06-09T13:41:10.034Z,29.53
2023-06-09T13:42:32.868Z,30.20
2023-06-09T13:43:55.769Z,30.72
2023-06-09T13:45:18.576Z,31.22
2023-06-09T13:46:42.620Z,31.52
2023-06-09T13:48:07.970Z,31.82
2023-06-09T13:49:30.896Z,32.00
2023-06-09T13:50:55.241Z,32.07
2023-06-09T13:52:18.054Z,32.35
2023-06-09T13:53:40.849Z,32.68
2023-06-09T13:55:02.799Z,32.23
2023-06-09T13:56:26.818Z,31.48
2023-06-09T13:57:49.591Z,30.51
2023-06-09T13:59:12.662Z,30.44
2023-06-09T14:00:35.533Z,30.86
2023-06-09T14:01:59.301Z,31.22
2023-06-09T14:03:24.113Z,29.90
2023-06-09T14:04:46.230Z,29.50
2023-06-09T14:06:09.443Z,29.90
2023-06-09T14:07:32.386Z,30.24
2023-06-09T14:08:56.081Z,30.67
2023-06-09T14:10:19.232Z,30.73
2023-06-09T14:11:42.059Z,30.88
2023-06-09T14:13:04.857Z,31.01
2023-06-09T14:14:27.747Z,31.02
2023-06-09T14:15:50.774Z,31.14
2023-06-09T14:17:13.645Z,31.37
2023-06-09T14:18:38.652Z,30.75
2023-06-09T14:20:01.554Z,31.11
2023-06-09T14:21:24.422Z,31.24
2023-06-09T14:22:46.936Z,30.70
2023-06-09T14:24:10.076Z,31.21
2023-06-09T14:25:33.029Z,31.43
2023-06-09T14:26:55.808Z,31.18
2023-06-09T14:28:18.610Z,31.01
2023-06-09T14:29:41.927Z,29.80
2023-06-09T14:31:04.712Z,29.70
2023-06-09T14:32:27.793Z,29.94
2023-06-09T14:33:52.493Z,30.66
2023-06-09T14:35:23.425Z,30.51
2023-06-09T14:36:47.314Z,30.66
2023-06-09T14:38:10.142Z,30.96
2023-06-09T14:39:32.977Z,31.43
2023-06-09T14:40:55.984Z,31.55
2023-06-09T14:42:18.974Z,31.50
2023-06-09T14:43:41.760Z,31.69
2023-06-09T14:45:05.134Z,31.56
2023-06-09T14:46:28.293Z,31.94
2023-06-09T14:47:53.895Z,32.20
2023-06-09T14:49:18.103Z,31.82
2023-06-09T14:50:42.730Z,32.07
2023-06-09T14:52:05.235Z,31.01
2023-06-09T14:53:28.042Z,30.81
2023-06-09T14:54:50.282Z,30.64
2023-06-09T14:56:14.730Z,30.45
2023-06-09T14:57:36.604Z,30.60
2023-06-09T14:59:01.839Z,30.52
2023-06-09T15:00:26.354Z,30.72
2023-06-09T15:01:50.166Z,29.46
2023-06-09T15:03:17.548Z,29.24
2023-06-09T15:04:41.158Z,29.41
2023-06-09T15:06:05.097Z,29.22
2023-06-09T15:07:28.900Z,29.58
2023-06-09T15:08:53.421Z,29.66
2023-06-09T15:10:16.347Z,29.96
2023-06-09T15:11:39.145Z,30.42
2023-06-09T15:13:03.069Z,30.99
2023-06-09T15:14:26.374Z,31.09
2023-06-09T15:15:49.298Z,31.13
2023-06-09T15:17:11.258Z,31.10
2023-06-09T15:18:34.063Z,30.80
2023-06-09T15:19:58.339Z,30.42
2023-06-09T15:21:21.141Z,30.57
2023-06-09T15:22:44.231Z,31.01
2023-06-09T15:24:09.035Z,31.31
2023-06-09T15:25:34.685Z,31.39
2023-06-09T15:26:57.593Z,31.67
2023-06-09T15:28:21.957Z,31.73
2023-06-09T15:29:44.734Z,31.93
2023-06-09T15:31:07.607Z,32.17
2023-06-09T15:32:29.580Z,32.12
2023-06-09T15:33:53.297Z,32.35
2023-06-09T15:35:17.438Z,32.23
2023-06-09T15:36:40.309Z,31.92
2023-06-09T15:38:03.952Z,31.20
2023-06-09T15:39:26.745Z,30.97
2023-06-09T15:40:51.991Z,31.49
2023-06-09T15:42:15.004Z,31.33
2023-06-09T15:43:38.823Z,31.31
2023-06-09T15:45:01.832Z,31.15
2023-06-09T15:46:24.698Z,31.26
2023-06-09T15:47:47.420Z,31.42
2023-06-09T15:49:10.334Z,31.64
2023-06-09T15:50:34.468Z,31.80
2023-06-09T15:51:57.275Z,31.82
2023-06-09T15:53:21.907Z,31.70
2023-06-09T15:54:45.014Z,31.82
2023-06-09T15:56:07.871Z,31.45
2023-06-09T15:57:30.705Z,31.37
2023-06-09T15:58:53.551Z,31.64
2023-06-09T16:00:17.213Z,31.32
2023-06-09T16:01:40.133Z,31.23
2023-06-09T16:03:06.431Z,30.81
2023-06-09T16:04:31.296Z,30.56
2023-06-09T16:05:55.938Z,30.72
2023-06-09T16:07:18.801Z,30.91
2023-06-09T16:08:41.642Z,31.15
2023-06-09T16:10:04.911Z,31.42
2023-06-09T16:11:28.025Z,31.40
2023-06-09T16:12:50.829Z,30.96
2023-06-09T16:14:13.703Z,31.00
2023-06-09T16:15:38.636Z,30.93
2023-06-09T16:17:05.997Z,31.28
2023-06-09T16:18:28.839Z,31.70
2023-06-09T16:19:50.719Z,31.73
2023-06-09T16:21:14.890Z,31.38
2023-06-09T16:22:36.750Z,31.13
2023-06-09T16:23:59.574Z,30.68
2023-06-09T16:25:21.606Z,30.63
2023-06-09T16:26:46.038Z,30.97
2023-06-09T16:28:10.697Z,30.61
2023-06-09T16:29:33.563Z,30.75
2023-06-09T16:30:56.427Z,30.94
2023-06-09T16:32:19.260Z,30.93
2023-06-09T16:33:42.141Z,31.33
2023-06-09T16:35:05.936Z,31.04
2023-06-09T16:36:30.364Z,30.15
2023-06-09T16:37:54.382Z,30.13
2023-06-09T16:39:17.844Z,30.56
2023-06-09T16:40:40.663Z,30.65
2023-06-09T16:42:03.536Z,30.34
2023-06-09T16:43:26.557Z,30.18
2023-06-09T16:44:51.144Z,30.55
2023-06-09T16:46:15.682Z,30.80
2023-06-09T16:47:38.598Z,30.47
2023-06-09T16:49:01.457Z,30.37
2023-06-09T16:50:24.668Z,30.27
2023-06-09T16:51:48.943Z,30.36
2023-06-09T16:53:11.751Z,30.12
2023-06-09T16:54:33.751Z,30.07
2023-06-09T16:55:57.552Z,29.96
2023-06-09T16:57:19.424Z,29.67
2023-06-09T16:58:42.206Z,29.67
2023-06-09T17:00:05.604Z,29.36
2023-06-09T17:01:28.659Z,29.57
2023-06-09T17:02:54.493Z,29.62
2023-06-09T17:04:18.901Z,29.81
2023-06-09T17:05:41.807Z,29.23
2023-06-09T17:07:06.206Z,29.47
2023-06-09T17:08:29.046Z,29.94
2023-06-09T17:09:51.950Z,30.29
2023-06-09T17:11:14.961Z,30.50
2023-06-09T17:12:37.735Z,30.78
2023-06-09T17:14:00.532Z,30.49
2023-06-09T17:15:25.285Z,30.33
2023-06-09T17:16:48.202Z,30.30
2023-06-09T17:18:11.750Z,30.23
2023-06-09T17:19:34.390Z,30.43
2023-06-09T17:20:57.217Z,30.44
2023-06-09T17:22:22.109Z,30.09
2023-06-09T17:23:44.989Z,30.32
2023-06-09T17:25:08.933Z,30.14
2023-06-09T17:26:33.256Z,30.28
2023-06-09T17:27:56.224Z,30.46
2023-06-09T17:29:18.166Z,30.24
2023-06-09T17:30:41.673Z,30.60
2023-06-09T17:32:03.879Z,30.60
2023-06-09T17:33:26.820Z,30.59
2023-06-09T17:34:49.666Z,30.64
2023-06-09T17:36:12.469Z,30.64
2023-06-09T17:37:38.313Z,30.64
2023-06-09T17:39:01.495Z,30.45
2023-06-09T17:40:23.357Z,29.93
2023-06-09T17:41:46.337Z,29.68
2023-06-09T17:43:09.224Z,29.64
2023-06-09T17:44:32.222Z,29.43
2023-06-09T17:45:55.080Z,29.37
2023-06-09T17:47:18.084Z,29.03
2023-06-09T17:48:45.196Z,29.17
2023-06-09T17:50:09.496Z,29.28
2023-06-09T17:51:32.803Z,29.35
2023-06-09T17:52:57.249Z,29.52
2023-06-09T17:54:20.101Z,29.65
2023-06-09T17:55:42.876Z,29.51
2023-06-09T17:57:07.415Z,29.55
2023-06-09T17:58:30.253Z,29.52
2023-06-09T17:59:52.106Z,29.51
2023-06-09T18:01:15.216Z,29.54
2023-06-09T18:02:38.155Z,29.37
2023-06-09T18:04:01.598Z,29.43
2023-06-09T18:05:24.508Z,29.56